createdAt,value
2018-09-18T00:00:05.430Z,4.83
2018-09-18T00:02:33.658Z,5.10
2018-09-18T00:05:02.349Z,4.50
2018-09-18T00:07:30.719Z,4.67
2018-09-18T00:09:58.946Z,4.83
2018-09-18T00:12:27.176Z,4.90
2018-09-18T00:14:55.418Z,5.17
2018-09-18T00:17:23.635Z,4.90
2018-09-18T00:19:51.853Z,4.90
2018-09-18T00:22:20.103Z,5.10
2018-09-18T00:24:48.339Z,5.00
2018-09-18T00:27:16.553Z,5.13
2018-09-18T00:29:44.769Z,5.33
2018-09-18T00:32:12.994Z,5.53
2018-09-18T00:34:41.222Z,5.30
2018-09-18T00:37:09.456Z,5.00
2018-09-18T00:39:37.710Z,5.33
2018-09-18T00:42:05.956Z,5.20
2018-09-18T00:44:34.198Z,5.30
2018-09-18T00:47:02.423Z,5.43
2018-09-18T00:49:30.666Z,5.10
2018-09-18T00:51:58.892Z,5.87
2018-09-18T00:54:27.105Z,5.33
2018-09-18T00:56:55.377Z,5.37
2018-09-18T00:59:23.593Z,5.70
2018-09-18T01:01:52.597Z,5.63
2018-09-18T01:04:20.910Z,6.43
2018-09-18T01:06:49.169Z,6.00
2018-09-18T01:09:17.382Z,5.67
2018-09-18T01:11:45.613Z,5.70
2018-09-18T01:14:13.841Z,5.77
2018-09-18T01:16:42.075Z,5.53
2018-09-18T01:19:10.289Z,6.03
2018-09-18T01:21:38.550Z,5.40
2018-09-18T01:24:06.773Z,5.20
2018-09-18T01:26:35.002Z,5.77
2018-09-18T01:29:03.235Z,5.77
2018-09-18T01:31:31.457Z,5.13
2018-09-18T01:33:59.673Z,5.40
2018-09-18T01:36:27.925Z,5.50
2018-09-18T01:38:56.160Z,5.73
2018-09-18T01:41:24.389Z,5.40
2018-09-18T01:43:52.662Z,5.63
2018-09-18T01:46:20.834Z,4.90
2018-09-18T01:48:49.062Z,4.97
2018-09-18T01:51:17.264Z,5.13
2018-09-18T01:53:45.485Z,5.40
2018-09-18T01:56:13.713Z,5.27
2018-09-18T01:58:41.934Z,5.20
2018-09-18T02:01:10.158Z,5.50
2018-09-18T02:03:38.406Z,5.37
2018-09-18T02:06:06.708Z,5.63
2018-09-18T02:08:34.905Z,5.60
2018-09-18T02:11:03.159Z,5.80
2018-09-18T02:13:31.357Z,5.90
2018-09-18T02:15:59.593Z,5.50
2018-09-18T02:18:27.814Z,5.63
2018-09-18T02:20:56.030Z,5.30
2018-09-18T02:23:24.248Z,5.37
2018-09-18T02:25:52.474Z,5.87
2018-09-18T02:28:20.685Z,7.20
2018-09-18T02:30:48.914Z,7.37
2018-09-18T02:33:17.143Z,7.33
2018-09-18T02:35:45.349Z,8.10
2018-09-18T02:38:13.592Z,6.53
2018-09-18T02:40:41.814Z,6.10
2018-09-18T02:43:10.045Z,5.80
2018-09-18T02:45:38.470Z,6.30
2018-09-18T02:48:06.692Z,6.10
2018-09-18T02:50:34.902Z,5.83
2018-09-18T02:53:03.138Z,5.73
2018-09-18T02:55:31.350Z,5.27
2018-09-18T02:57:59.574Z,5.77
2018-09-18T03:00:27.798Z,6.13
2018-09-18T03:02:56.012Z,5.90
2018-09-18T03:05:24.259Z,6.20
2018-09-18T03:07:52.468Z,6.20
2018-09-18T03:10:20.697Z,5.50
2018-09-18T03:12:48.920Z,6.13
2018-09-18T03:15:17.164Z,5.40
2018-09-18T03:17:45.380Z,4.90
2018-09-18T03:20:13.634Z,5.40
2018-09-18T03:22:41.831Z,5.53
2018-09-18T03:25:10.086Z,5.23
2018-09-18T03:27:38.304Z,5.70
2018-09-18T03:30:06.554Z,5.50
2018-09-18T03:32:34.766Z,5.03
2018-09-18T03:35:02.977Z,5.63
2018-09-18T03:37:31.227Z,5.27
2018-09-18T03:39:59.462Z,5.33
2018-09-18T03:42:27.702Z,5.40
2018-09-18T03:44:55.918Z,5.73
2018-09-18T03:47:24.139Z,5.70
2018-09-18T03:49:53.301Z,5.43
2018-09-18T03:52:21.529Z,6.20
2018-09-18T03:54:49.813Z,5.67
2018-09-18T03:57:18.027Z,6.20
2018-09-18T03:59:46.276Z,6.40
2018-09-18T04:02:14.498Z,5.80
2018-09-18T04:04:43.798Z,6.33
2018-09-18T04:07:12.023Z,5.87
2018-09-18T04:09:40.246Z,6.23
2018-09-18T04:12:08.450Z,6.40
2018-09-18T04:14:36.673Z,6.20
2018-09-18T04:17:04.997Z,6.17
2018-09-18T04:19:33.241Z,6.23
2018-09-18T04:22:01.466Z,6.20
2018-09-18T04:24:30.698Z,5.93
2018-09-18T04:26:58.920Z,6.00
2018-09-18T04:29:27.125Z,5.87
2018-09-18T04:31:55.358Z,5.67
2018-09-18T04:34:23.582Z,5.80
2018-09-18T04:36:52.878Z,5.63
2018-09-18T04:39:21.158Z,6.00
2018-09-18T04:41:50.456Z,6.23
2018-09-18T04:44:18.673Z,5.77
2018-09-18T04:46:46.900Z,6.13
2018-09-18T04:49:15.145Z,5.80
2018-09-18T04:51:43.446Z,6.20
2018-09-18T04:54:11.674Z,6.70
2018-09-18T04:56:39.890Z,6.17
2018-09-18T04:59:08.179Z,6.07
2018-09-18T05:01:36.481Z,6.20
2018-09-18T05:04:04.721Z,6.67
2018-09-18T05:06:33.029Z,6.40
2018-09-18T05:09:01.249Z,6.40
2018-09-18T05:11:29.549Z,6.13
2018-09-18T05:13:57.927Z,6.20
2018-09-18T05:16:26.081Z,5.70
2018-09-18T05:18:54.445Z,6.40
2018-09-18T05:21:23.697Z,6.17
2018-09-18T05:23:51.935Z,5.97
2018-09-18T05:26:20.146Z,5.97
2018-09-18T05:28:49.389Z,6.23
2018-09-18T05:31:17.686Z,6.33
2018-09-18T05:33:47.068Z,6.43
2018-09-18T05:36:15.282Z,5.90
2018-09-18T05:38:43.582Z,6.33
2018-09-18T05:41:11.860Z,6.33
2018-09-18T05:43:41.193Z,6.40
2018-09-18T05:46:10.494Z,6.20
2018-09-18T05:48:38.790Z,6.43
2018-09-18T05:51:07.105Z,6.13
2018-09-18T05:53:35.326Z,6.53
2018-09-18T05:56:04.574Z,6.40
2018-09-18T05:58:32.798Z,6.80
2018-09-18T06:01:01.040Z,7.40
2018-09-18T06:03:29.332Z,6.60
2018-09-18T06:05:57.559Z,6.20
2018-09-18T06:08:25.777Z,6.30
2018-09-18T06:10:54.087Z,6.33
2018-09-18T06:13:22.319Z,6.87
2018-09-18T06:15:50.565Z,6.73
2018-09-18T06:18:18.884Z,6.10
2018-09-18T06:20:47.089Z,6.33
2018-09-18T06:23:15.344Z,6.30
2018-09-18T06:25:43.575Z,6.63
2018-09-18T06:28:11.791Z,6.50
2018-09-18T06:30:40.002Z,6.10
2018-09-18T06:33:08.446Z,6.13
2018-09-18T06:35:36.681Z,6.50
2018-09-18T06:38:04.990Z,6.13
2018-09-18T06:40:33.216Z,6.40
2018-09-18T06:43:01.434Z,6.50
2018-09-18T06:45:29.666Z,6.20
2018-09-18T06:47:57.913Z,5.60
2018-09-18T06:50:26.119Z,5.97
2018-09-18T06:52:54.348Z,5.90
2018-09-18T06:55:22.581Z,5.50
2018-09-18T06:57:50.812Z,5.57
2018-09-18T07:00:19.947Z,5.40
2018-09-18T07:02:49.214Z,5.20
2018-09-18T07:05:17.442Z,5.50
2018-09-18T07:07:45.658Z,5.13
2018-09-18T07:10:13.897Z,6.20
2018-09-18T07:12:42.142Z,4.90
2018-09-18T07:15:10.367Z,5.23
2018-09-18T07:17:38.582Z,5.10
2018-09-18T07:20:07.062Z,5.20
2018-09-18T07:22:35.278Z,4.83
2018-09-18T07:25:03.503Z,5.50
2018-09-18T07:27:31.773Z,4.70
2018-09-18T07:30:00.002Z,4.73
2018-09-18T07:32:28.201Z,4.93
2018-09-18T07:34:56.423Z,5.23
2018-09-18T07:37:24.621Z,5.13
2018-09-18T07:39:52.855Z,4.73
2018-09-18T07:42:21.065Z,4.27
2018-09-18T07:44:49.289Z,4.80
2018-09-18T07:47:17.501Z,4.97
2018-09-18T07:49:45.734Z,4.87
2018-09-18T07:52:14.003Z,4.50
2018-09-18T07:54:42.165Z,4.80
2018-09-18T07:57:10.378Z,5.07
2018-09-18T07:59:38.606Z,4.60
2018-09-18T08:02:06.894Z,4.97
2018-09-18T08:04:35.114Z,4.63
2018-09-18T08:07:03.941Z,4.70
2018-09-18T08:09:32.183Z,4.10
2018-09-18T08:12:00.407Z,4.47
2018-09-18T08:14:28.618Z,4.77
2018-09-18T08:16:56.855Z,4.83
2018-09-18T08:19:25.180Z,4.70
2018-09-18T08:21:53.304Z,4.57
2018-09-18T08:24:21.513Z,4.73
2018-09-18T08:26:49.762Z,5.10
2018-09-18T08:29:17.961Z,5.07
2018-09-18T08:31:48.210Z,4.53
2018-09-18T08:34:16.441Z,4.93
2018-09-18T08:36:44.650Z,5.23
2018-09-18T08:39:12.878Z,5.10
2018-09-18T08:41:41.140Z,4.53
2018-09-18T08:44:09.369Z,4.87
2018-09-18T08:46:37.585Z,5.20
2018-09-18T08:49:05.860Z,4.90
2018-09-18T08:51:35.224Z,4.70
2018-09-18T08:54:03.450Z,5.00
2018-09-18T08:56:31.726Z,4.57
2018-09-18T08:58:59.980Z,4.80
2018-09-18T09:01:28.215Z,4.80
2018-09-18T09:03:56.524Z,4.90
2018-09-18T09:06:24.720Z,5.07
2018-09-18T09:08:53.133Z,4.87
2018-09-18T09:11:21.179Z,5.20
2018-09-18T09:13:49.407Z,4.90
2018-09-18T09:16:17.646Z,5.20
2018-09-18T09:18:45.873Z,4.73
2018-09-18T09:21:14.198Z,4.90
2018-09-18T09:23:42.332Z,4.80
2018-09-18T09:26:10.574Z,5.23
2018-09-18T09:28:38.829Z,5.40
2018-09-18T09:31:07.097Z,5.23
2018-09-18T09:33:35.354Z,4.63
2018-09-18T09:36:03.565Z,5.53
2018-09-18T09:38:31.803Z,4.80
2018-09-18T09:41:01.108Z,5.07
2018-09-18T09:43:29.345Z,5.20
2018-09-18T09:45:57.590Z,5.20
2018-09-18T09:48:25.821Z,5.70
2018-09-18T09:50:54.093Z,5.37
2018-09-18T09:53:22.333Z,5.27
2018-09-18T09:55:50.566Z,5.67
2018-09-18T09:58:18.798Z,5.23
2018-09-18T10:01:53.821Z,4.87
2018-09-18T10:04:22.134Z,5.13
2018-09-18T10:06:50.361Z,4.70
2018-09-18T10:09:18.576Z,5.00
2018-09-18T10:11:46.807Z,5.50
2018-09-18T10:14:15.072Z,5.23
2018-09-18T10:16:43.277Z,5.00
2018-09-18T10:19:12.532Z,5.33
2018-09-18T10:21:40.787Z,5.30
2018-09-18T10:24:09.787Z,5.60
2018-09-18T10:26:38.096Z,5.50
2018-09-18T10:29:06.412Z,5.20
2018-09-18T10:31:34.597Z,5.43
2018-09-18T10:34:02.846Z,5.60
2018-09-18T10:36:31.058Z,5.30
2018-09-18T10:38:59.281Z,5.20
2018-09-18T10:41:27.805Z,5.03
2018-09-18T10:43:56.078Z,5.20
2018-09-18T10:46:24.722Z,5.27
2018-09-18T10:48:55.753Z,5.53
2018-09-18T10:51:23.991Z,5.07
2018-09-18T10:53:52.226Z,5.43
2018-09-18T10:56:20.456Z,5.20
2018-09-18T10:58:48.678Z,5.80
2018-09-18T11:01:17.016Z,5.53
2018-09-18T11:03:45.223Z,5.57
2018-09-18T11:06:13.921Z,5.50
2018-09-18T11:08:42.127Z,6.20
2018-09-18T11:11:10.382Z,6.00
2018-09-18T11:13:38.602Z,5.53
2018-09-18T11:16:07.265Z,5.50
2018-09-18T11:18:35.344Z,5.93
2018-09-18T11:21:03.682Z,5.80
2018-09-18T11:23:31.958Z,5.80
2018-09-18T11:26:00.142Z,5.87
2018-09-18T11:28:28.377Z,5.23
2018-09-18T11:30:56.608Z,6.13
2018-09-18T11:33:24.880Z,5.80
2018-09-18T11:35:53.088Z,7.33
2018-09-18T11:38:21.303Z,5.93
2018-09-18T11:40:49.566Z,5.40
2018-09-18T11:43:17.784Z,5.70
2018-09-18T11:45:46.172Z,6.20
2018-09-18T11:48:14.262Z,5.63
2018-09-18T11:50:43.546Z,5.23
2018-09-18T11:53:11.770Z,5.23
2018-09-18T11:55:41.141Z,5.20
2018-09-18T11:58:12.823Z,5.20
2018-09-18T12:00:43.519Z,5.50
2018-09-18T12:03:12.798Z,5.17
2018-09-18T12:05:43.137Z,5.07
2018-09-18T12:08:13.725Z,4.77
2018-09-18T12:10:43.903Z,5.50
2018-09-18T12:13:14.103Z,5.30
2018-09-18T12:15:43.396Z,5.30
2018-09-18T12:18:12.691Z,4.80
2018-09-18T12:20:41.846Z,5.10
2018-09-18T12:23:10.934Z,4.87
2018-09-18T12:25:40.057Z,5.30
2018-09-18T12:28:09.188Z,5.00
2018-09-18T12:30:38.414Z,5.30
2018-09-18T12:33:09.053Z,5.20
2018-09-18T12:35:39.202Z,4.90
2018-09-18T12:38:09.158Z,4.77
2018-09-18T12:40:38.452Z,5.03
2018-09-18T12:43:07.737Z,4.90
2018-09-18T12:45:36.876Z,5.13
2018-09-18T12:48:06.251Z,4.63
2018-09-18T12:50:35.684Z,4.47
2018-09-18T12:53:04.687Z,5.13
2018-09-18T12:55:34.898Z,4.70
2018-09-18T12:58:06.781Z,4.47
2018-09-18T13:00:36.801Z,4.90
2018-09-18T13:03:05.614Z,4.67
2018-09-18T13:05:36.071Z,4.70
2018-09-18T13:08:04.341Z,4.30
2018-09-18T13:10:32.606Z,4.33
2018-09-18T13:13:00.827Z,4.30
2018-09-18T13:15:29.085Z,4.67
2018-09-18T13:17:57.334Z,4.83
2018-09-18T13:20:25.601Z,4.10
2018-09-18T13:22:53.894Z,4.23
2018-09-18T13:25:22.151Z,3.90
2018-09-18T13:27:50.502Z,4.00
2018-09-18T13:30:19.816Z,4.20
2018-09-18T13:32:48.070Z,4.10
2018-09-18T13:35:16.273Z,4.13
2018-09-18T13:37:46.548Z,4.20
2018-09-18T13:40:14.819Z,4.03
2018-09-18T13:42:43.037Z,4.00
2018-09-18T13:45:11.266Z,4.60
2018-09-18T13:47:39.501Z,4.00
2018-09-18T13:50:08.189Z,4.03
2018-09-18T13:52:36.435Z,4.60
2018-09-18T13:55:04.690Z,4.60
2018-09-18T13:57:32.938Z,4.50
2018-09-18T14:00:01.277Z,4.33
2018-09-18T14:02:29.533Z,4.80
2018-09-18T14:04:58.813Z,4.57
2018-09-18T14:07:26.958Z,5.20
2018-09-18T14:09:55.210Z,4.83
2018-09-18T14:12:23.429Z,4.53
2018-09-18T14:14:51.700Z,4.67
2018-09-18T14:17:19.902Z,4.97
2018-09-18T14:19:48.133Z,5.03
2018-09-18T14:22:16.343Z,4.93
2018-09-18T14:24:44.586Z,4.80
2018-09-18T14:27:12.797Z,5.17
2018-09-18T14:29:41.104Z,4.13
2018-09-18T14:32:10.417Z,4.30
2018-09-18T14:34:38.753Z,4.30
2018-09-18T14:37:07.074Z,4.53
2018-09-18T14:39:35.301Z,4.17
2018-09-18T14:42:03.542Z,4.27
2018-09-18T14:44:31.793Z,4.33
2018-09-18T14:47:00.093Z,4.90
2018-09-18T14:49:28.228Z,4.50
2018-09-18T14:51:56.570Z,6.93
2018-09-18T14:54:24.783Z,5.03
2018-09-18T14:56:54.079Z,4.90
2018-09-18T14:59:22.402Z,4.87
2018-09-18T15:01:50.714Z,4.30
2018-09-18T15:04:18.961Z,3.90
2018-09-18T15:06:47.281Z,4.27
2018-09-18T15:09:15.466Z,3.57
2018-09-18T15:11:43.678Z,3.57
2018-09-18T15:14:11.898Z,3.70
2018-09-18T15:16:40.143Z,3.90
2018-09-18T15:19:08.914Z,3.83
2018-09-18T15:21:37.140Z,3.80
2018-09-18T15:24:05.385Z,3.77
2018-09-18T15:26:33.602Z,4.03
2018-09-18T15:29:01.837Z,3.63
2018-09-18T15:31:30.109Z,3.70
2018-09-18T15:33:58.393Z,3.13
2018-09-18T15:36:27.606Z,3.60
2018-09-18T15:38:55.848Z,3.30
2018-09-18T15:41:24.083Z,3.70
2018-09-18T15:43:52.546Z,3.50
2018-09-18T15:46:20.774Z,3.23
2018-09-18T15:48:49.051Z,3.17
2018-09-18T15:51:17.384Z,3.10
2018-09-18T15:53:45.610Z,3.30
2018-09-18T15:56:13.831Z,3.47
2018-09-18T15:58:42.094Z,3.40
2018-09-18T16:01:10.361Z,3.43
2018-09-18T16:03:38.589Z,3.10
2018-09-18T16:06:06.809Z,2.97
2018-09-18T16:08:35.067Z,3.00
2018-09-18T16:11:03.339Z,2.80
2018-09-18T16:13:31.579Z,2.90
2018-09-18T16:16:00.202Z,2.80
2018-09-18T16:18:29.192Z,2.70
2018-09-18T16:20:57.713Z,2.50
2018-09-18T16:23:25.949Z,2.97
2018-09-18T16:25:54.182Z,2.77
2018-09-18T16:28:22.399Z,2.93
2018-09-18T16:30:51.840Z,3.00
2018-09-18T16:33:19.935Z,3.40
2018-09-18T16:35:48.201Z,3.40
2018-09-18T16:38:16.438Z,3.47
2018-09-18T16:40:44.736Z,3.20
2018-09-18T16:43:12.914Z,3.10
2018-09-18T16:45:41.162Z,3.10
2018-09-18T16:48:09.493Z,3.00
2018-09-18T16:50:37.809Z,3.50
2018-09-18T16:53:06.084Z,2.90
2018-09-18T16:55:34.289Z,3.33
2018-09-18T16:58:02.502Z,3.17
2018-09-18T17:00:30.739Z,3.20
2018-09-18T17:02:58.929Z,3.20
2018-09-18T17:05:27.189Z,5.47
2018-09-18T17:07:57.426Z,4.60
2018-09-18T17:10:25.759Z,3.43
2018-09-18T17:12:53.940Z,3.40
2018-09-18T17:15:22.179Z,3.43
2018-09-18T17:17:50.398Z,2.80
2018-09-18T17:20:18.621Z,3.50
2018-09-18T17:22:46.843Z,3.03
2018-09-18T17:25:15.075Z,2.93
2018-09-18T17:27:43.284Z,2.83
2018-09-18T17:30:11.562Z,2.57
2018-09-18T17:32:39.805Z,3.03
2018-09-18T17:35:08.315Z,2.80
2018-09-18T17:37:36.793Z,3.17
2018-09-18T17:40:05.155Z,3.27
2018-09-18T17:42:33.363Z,3.00
2018-09-18T17:45:01.974Z,2.90
2018-09-18T17:47:30.235Z,2.93
2018-09-18T17:49:58.411Z,3.00
2018-09-18T17:52:26.654Z,3.10
2018-09-18T17:54:54.886Z,3.23
2018-09-18T17:57:23.095Z,3.30
2018-09-18T17:59:51.318Z,3.30
2018-09-18T18:02:19.837Z,2.93
2018-09-18T18:04:48.055Z,3.43
2018-09-18T18:07:16.296Z,3.30
2018-09-18T18:09:44.519Z,3.07
2018-09-18T18:12:12.751Z,3.50
2018-09-18T18:14:41.031Z,3.33
2018-09-18T18:17:09.272Z,3.27
2018-09-18T18:19:37.482Z,3.60
2018-09-18T18:22:05.970Z,3.53
2018-09-18T18:24:34.177Z,3.93
2018-09-18T18:27:02.406Z,3.77
2018-09-18T18:29:30.655Z,3.83
2018-09-18T18:31:58.831Z,3.60
2018-09-18T18:34:27.037Z,3.30
2018-09-18T18:36:55.270Z,3.57
2018-09-18T18:39:23.505Z,3.83
2018-09-18T18:41:51.755Z,3.20
2018-09-18T18:44:20.026Z,3.87
2018-09-18T18:46:48.240Z,3.93
2018-09-18T18:49:16.461Z,3.77
2018-09-18T18:51:44.675Z,3.67
2018-09-18T18:54:12.887Z,3.67
2018-09-18T18:56:41.198Z,3.80
2018-09-18T18:59:09.362Z,3.60
2018-09-18T19:01:37.614Z,3.53
2018-09-18T19:04:05.865Z,3.70
2018-09-18T19:06:34.312Z,3.80
2018-09-18T19:09:02.514Z,3.37
2018-09-18T19:11:30.798Z,3.27
2018-09-18T19:13:59.005Z,3.70
2018-09-18T19:16:27.280Z,3.73
2018-09-18T19:18:55.563Z,3.30
2018-09-18T19:21:29.296Z,3.27
2018-09-18T19:23:57.562Z,3.30
2018-09-18T19:26:25.786Z,3.03
2018-09-18T19:28:54.696Z,3.23
2018-09-18T19:31:22.901Z,2.87
2018-09-18T19:33:51.280Z,3.13
2018-09-18T19:36:19.507Z,2.60
2018-09-18T19:38:47.721Z,2.97
2018-09-18T19:41:15.952Z,3.20
2018-09-18T19:43:44.162Z,3.13
2018-09-18T19:46:12.727Z,3.80
2018-09-18T19:48:41.213Z,3.20
2018-09-18T19:51:09.471Z,3.57
2018-09-18T19:53:37.751Z,3.33
2018-09-18T19:56:06.169Z,3.40
2018-09-18T19:58:35.431Z,3.83
2018-09-18T20:01:03.740Z,3.27
2018-09-18T20:03:31.962Z,3.40
2018-09-18T20:06:00.179Z,3.67
2018-09-18T20:08:28.435Z,3.33
2018-09-18T20:10:56.658Z,3.43
2018-09-18T20:13:24.906Z,3.37
2018-09-18T20:15:53.257Z,3.37
2018-09-18T20:18:21.606Z,3.80
2018-09-18T20:20:49.925Z,3.60
2018-09-18T20:23:18.113Z,3.33
2018-09-18T20:25:47.648Z,3.77
2018-09-18T20:28:15.880Z,4.27
2018-09-18T20:30:44.126Z,4.03
2018-09-18T20:33:13.422Z,3.60
2018-09-18T20:35:41.709Z,3.60
2018-09-18T20:38:09.903Z,4.13
2018-09-18T20:40:38.221Z,4.10
2018-09-18T20:43:06.701Z,4.40
2018-09-18T20:45:34.938Z,4.20
2018-09-18T20:48:06.625Z,4.30
2018-09-18T20:50:34.927Z,4.00
2018-09-18T20:53:03.074Z,3.77
2018-09-18T20:55:31.313Z,4.30
2018-09-18T20:58:00.630Z,3.93
2018-09-18T21:00:28.871Z,3.77
2018-09-18T21:02:57.103Z,3.70
2018-09-18T21:05:25.348Z,3.90
2018-09-18T21:07:53.592Z,4.03
2018-09-18T21:10:21.828Z,4.40
2018-09-18T21:12:50.064Z,4.40
2018-09-18T21:15:18.286Z,4.50
2018-09-18T21:17:46.545Z,4.27
2018-09-18T21:20:14.775Z,3.87
2018-09-18T21:22:42.986Z,4.20
2018-09-18T21:25:15.010Z,4.57
2018-09-18T21:27:44.458Z,4.30
2018-09-18T21:30:13.141Z,4.20
2018-09-18T21:32:41.387Z,4.80
2018-09-18T21:35:09.921Z,4.60
2018-09-18T21:37:38.303Z,4.73
2018-09-18T21:40:06.556Z,4.97
2018-09-18T21:42:34.812Z,4.67
2018-09-18T21:45:03.381Z,4.43
2018-09-18T21:47:31.657Z,4.90
2018-09-18T21:49:59.884Z,4.50
2018-09-18T21:52:28.094Z,4.37
2018-09-18T21:54:56.462Z,4.70
2018-09-18T21:57:24.669Z,5.00
2018-09-18T21:59:52.888Z,4.90
2018-09-18T22:02:21.158Z,4.50
2018-09-18T22:04:49.385Z,4.60
2018-09-18T22:07:17.601Z,5.03
2018-09-18T22:09:45.815Z,4.73
2018-09-18T22:12:14.040Z,4.80
2018-09-18T22:14:42.259Z,4.73
2018-09-18T22:17:10.503Z,4.50
2018-09-18T22:19:38.710Z,4.80
2018-09-18T22:22:06.992Z,4.80
2018-09-18T22:24:35.236Z,5.00
2018-09-18T22:27:03.486Z,4.70
2018-09-18T22:29:31.694Z,4.70
2018-09-18T22:31:59.917Z,4.90
2018-09-18T22:34:28.239Z,4.80
2018-09-18T22:36:56.430Z,4.20
2018-09-18T22:39:24.675Z,4.87
2018-09-18T22:41:52.853Z,4.50
2018-09-18T22:44:21.070Z,4.70
2018-09-18T22:46:49.290Z,4.37
2018-09-18T22:49:17.494Z,4.23
2018-09-18T22:51:45.719Z,4.40
2018-09-18T22:54:13.925Z,4.57
2018-09-18T22:56:42.137Z,4.77
2018-09-18T22:59:10.345Z,4.47
2018-09-18T23:01:38.584Z,4.97
2018-09-18T23:04:06.827Z,4.63
2018-09-18T23:06:35.053Z,4.90
2018-09-18T23:09:03.324Z,4.47
2018-09-18T23:11:31.527Z,4.27
2018-09-18T23:13:59.745Z,4.63
2018-09-18T23:16:27.973Z,5.23
2018-09-18T23:18:56.259Z,5.00
2018-09-18T23:21:24.435Z,4.90
2018-09-18T23:23:52.655Z,4.80
2018-09-18T23:26:20.870Z,4.43
2018-09-18T23:28:49.083Z,4.93
2018-09-18T23:31:17.303Z,4.60
2018-09-18T23:33:45.745Z,4.40
2018-09-18T23:36:13.962Z,4.47
2018-09-18T23:38:42.217Z,4.90
2018-09-18T23:41:10.417Z,4.60
2018-09-18T23:43:38.635Z,4.67
2018-09-18T23:46:06.902Z,4.50
2018-09-18T23:48:35.187Z,4.33
2018-09-18T23:51:03.362Z,4.70
2018-09-18T23:53:31.603Z,5.10
2018-09-18T23:55:59.814Z,4.93
2018-09-18T23:58:28.026Z,4.57
